METAR Data
IDs: Format: Raw Decoded Include TAF

Data at: 1328 UTC 17 Sep 2019

METAR for:TKPK (St Kitts/Bradshaw In, --, AT)
Text:TKPK 171300Z 08017KT 9999 FEW022 30/25 Q1014
Temperature: 30.0°C ( 86°F)
Dewpoint: 25.0°C ( 77°F) [RH = 75%]
Pressure (altimeter):29.94 inches Hg (1014.0 mb)
Winds:from the E (80 degrees) at 20 MPH (17 knots; 8.7 m/s)
Visibility:6 or more sm (10+ km)
Ceiling:at least 12,000 feet AGL
Clouds: few clouds at 2200 feet AGL